NCAR-RAP Real-Time Weather Data

Output produced by METARs form (12 August 2020  18:49 UTC)
found at http://weather.rap.ucar.edu/surface/
 
KCOS 121754Z 22008KT 10SM SCT090 SCT160 24/14 A3021 RMK AO2 SLP132 T02440139 10244 20150 58017
KCOS 121654Z 17007KT 10SM FEW022 SCT080 BKN160 22/14 A3024 RMK AO2 SLP146 T02170139
KCOS 121638Z 13003KT 10SM SCT021 SCT080 BKN160 22/14 A3025 RMK AO2 T02170139
KCOS 121554Z 20008KT 10SM BKN019 BKN025 BKN160 20/13 A3026 RMK AO2 SLP157 T02000133
KCOS 121454Z 17007KT 10SM BKN015 BKN025 BKN170 21/14 A3027 RMK AO2 SLP150 T02060139 50023
KCOS 121445Z 17007KT 10SM BKN015 BKN025 BKN170 19/14 A3027 RMK AO2 T01940144
KCOS 121425Z 13007KT 10SM FEW010 SCT013 SCT025 BKN170 18/14 A3027 RMK AO2 T01830139
KCOS 121354Z 10007KT 10SM SCT009 BKN013 BKN020 18/14 A3027 RMK AO2 SLP155 T01780139
KCOS 121350Z 11007KT 10SM SCT009 BKN013 BKN020 18/14 A3028 RMK AO2
KCOS 121312Z 08009KT 6SM BR BKN009 BKN013 17/14 A3026 RMK AO2 T01670144
KCOS 121254Z COR 08010KT 6SM BR FEW010 SCT013 SCT160 17/14 A3025 RMK AO2 PRESRR SLP145 T01670139
KCOS 121154Z 08007KT 6SM BR FEW008 15/13 A3019 RMK AO2 SLP124 T01500133 10222 20144 53015
KCOS 121054Z 00000KT 10SM CLR 15/12 A3015 RMK AO2 SLP109 T01500122
KCOS 120954Z 01005KT 9SM FEW010 16/12 A3014 RMK AO2 SLP102 T01560122
KCOS 120854Z 03007KT 10SM CLR 17/13 A3013 RMK AO2 SLP099 T01720133 58001
KCOS 120754Z 04009KT 10SM FEW160 18/14 A3013 RMK AO2 SLP098 T01830139
KCOS 120654Z 01009KT 10SM FEW160 20/14 A3015 RMK AO2 SLP101 T02000144 403560139
KCOS 120554Z 06011KT 10SM SCT160 22/14 A3013 RMK AO2 SLP100 T02220139 10322 20222 51018
KCOS 120512Z 08017G25KT 10SM BKN170 24/08 A3012 RMK AO2 T02440083
KCOS 120454Z 05012KT 10SM BKN170 23/04 A3012 RMK AO2 SLP091 T02330039
KCOS 120354Z 03005KT 10SM FEW140 BKN180 24/M02 A3010 RMK AO2 SLP087 T02391022
KCOS 120254Z 29007KT 10SM FEW140 BKN180 28/M01 A3007 RMK AO2 SLP079 T02781011 53009
KCOS 120154Z 05008KT 10SM FEW140 BKN180 29/M03 A3005 RMK AO2 SLP066 T02941028
KCOS 120054Z 03014KT 10SM FEW120 BKN170 31/M02 A3004 RMK AO2 SLP074 T03111022
KCOS 112354Z 13005KT 10SM FEW120 BKN160 32/M04 A3004 RMK AO2 SLP068 T03221039 10356 20283 56013
KCOS 112254Z 09006KT 10SM FEW120 BKN150 BKN200 33/M04 A3005 RMK AO2 SLP077 T03331039